Time;durP1;ratioP1;P1;durP2;ratioP2;P2;SDS_P1;SDS_P2;PMS_P1;PMS_P2;Temp;Humidity;BMP_temperature;BMP_pressure;BME280_temperature;BME280_humidity;BME280_pressure;Samples;Min_cycle;Max_cycle;Signal;HPM_P1;HPM_P2
2021/04/04 12:27:56;;;;;;;7.90;3.73;;;;;;;15.34;36.57;99510.53;10466397;27;20735;-74
2021/04/04 12:33:20;;;;;;;2.97;2.57;;;;;;;15.84;35.91;99510.47;10554551;27;20224;-73
2021/04/04 12:38:40;;;;;;;10.83;3.47;;;;;;;17.70;32.65;99492.88;10543695;28;20182;-74
2021/04/04 12:44:00;;;;;;;5.20;2.53;;;;;;;17.20;31.74;99492.53;10558358;28;20637;-75
2021/04/04 12:49:21;;;;;;;4.27;2.93;;;;;;;17.34;32.23;99472.75;10536827;28;20264;-74
2021/04/04 12:54:41;;;;;;;4.67;3.57;;;;;;;17.85;31.49;99474.59;10534450;28;20633;-74
2021/04/04 13:00:00;;;;;;;3.73;3.43;;;;;;;18.70;30.78;99455.81;10543712;28;20177;-74
2021/04/04 13:05:19;;;;;;;6.60;3.70;;;;;;;17.91;31.84;99454.13;10554430;28;20210;-74
2021/04/04 13:10:39;;;;;;;3.90;3.10;;;;;;;15.81;35.64;99453.03;10543369;28;20613;-74
2021/04/04 13:16:01;;;;;;;3.87;2.60;;;;;;;16.67;33.87;99444.13;10558054;28;20177;-74
2021/04/04 13:21:21;;;;;;;6.80;2.97;;;;;;;15.00;35.59;99428.69;10572578;28;20260;-74
2021/04/04 13:26:45;;;;;;;15.93;3.57;;;;;;;16.08;33.75;99421.16;10572122;28;20229;-74
2021/04/04 13:32:05;;;;;;;2.63;2.43;;;;;;;16.87;35.35;99415.88;10572309;28;20173;-74
2021/04/04 13:37:25;;;;;;;8.20;3.60;;;;;;;17.49;33.34;99406.38;10519945;28;20186;-74
2021/04/04 13:42:50;;;;;;;6.63;3.10;;;;;;;15.31;35.76;99396.91;10504159;28;20213;-75
2021/04/04 13:48:12;;;;;;;3.10;2.63;;;;;;;15.88;35.55;99394.63;10501222;28;20585;-74
2021/04/04 13:53:36;;;;;;;8.37;3.70;;;;;;;16.17;36.93;99396.41;10515525;28;20652;-75
2021/04/04 13:59:08;;;;;;;6.60;2.93;;;;;;;16.42;33.95;99383.59;10505296;28;20187;-74
2021/04/04 14:04:31;;;;;;;3.33;2.10;;;;;;;15.41;36.63;99377.34;10465013;28;20215;-75
2021/04/04 14:09:50;;;;;;;5.77;3.90;;;;;;;15.72;35.84;99367.63;10513081;28;20632;-75
2021/04/04 14:15:11;;;;;;;6.67;2.70;;;;;;;15.50;36.33;99377.56;10502557;28;20534;-75
2021/04/04 14:20:30;;;;;;;8.87;3.60;;;;;;;16.53;35.54;99361.13;10521193;28;20178;-75
2021/04/04 14:25:50;;;;;;;12.60;3.00;;;;;;;17.05;34.36;99352.28;10517344;28;20234;-75
2021/04/04 14:31:10;;;;;;;3.03;2.57;;;;;;;16.31;37.53;99346.19;10509737;28;20210;-74
2021/04/04 14:36:30;;;;;;;5.80;2.37;;;;;;;16.85;35.78;99345.25;10510535;28;20178;-75
2021/04/04 14:41:50;;;;;;;3.67;2.33;;;;;;;18.15;33.97;99323.78;10502657;28;20234;-74
2021/04/04 14:47:10;;;;;;;4.10;2.90;;;;;;;16.87;35.04;99324.16;10497628;28;20210;-73
2021/04/04 14:52:29;;;;;;;2.97;2.43;;;;;;;16.53;34.36;99331.34;10499255;28;20633;-75
2021/04/04 14:57:48;;;;;;;6.50;3.83;;;;;;;15.90;35.32;99320.88;10505260;28;20178;-74
2021/04/04 15:03:08;;;;;;;4.60;2.70;;;;;;;16.99;34.47;99306.78;10529313;28;20583;-76
2021/04/04 15:08:27;;;;;;;5.10;2.57;;;;;;;16.83;35.26;99304.00;10518538;28;20599;-74
2021/04/04 15:13:46;;;;;;;2.57;1.90;;;;;;;16.92;33.54;99295.84;10498150;28;20190;-75
2021/04/04 15:19:05;;;;;;;4.53;3.57;;;;;;;16.65;34.80;99285.44;10499267;28;20179;-75
2021/04/04 15:24:24;;;;;;;2.60;1.97;;;;;;;15.74;34.60;99286.75;10498337;28;20230;-74
2021/04/04 15:29:43;;;;;;;2.60;2.40;;;;;;;15.64;35.13;99276.63;10497180;28;20183;-74
2021/04/04 15:35:04;;;;;;;3.80;3.10;;;;;;;14.25;38.03;99279.97;10498548;28;20178;-74
2021/04/04 15:40:24;;;;;;;3.43;2.40;;;;;;;15.55;35.71;99260.59;10497289;28;20210;-75
2021/04/04 15:45:45;;;;;;;2.90;2.20;;;;;;;15.08;36.16;99260.34;10496468;28;20210;-74
2021/04/04 15:51:04;;;;;;;10.10;2.60;;;;;;;14.01;38.49;99260.94;10498137;28;20175;-75
2021/04/04 15:56:23;;;;;;;3.47;2.97;;;;;;;15.10;36.17;99247.63;10498119;28;20170;-74
2021/04/04 16:01:42;;;;;;;24.07;2.90;;;;;;;15.33;35.92;99248.38;10496318;28;20182;-76
2021/04/04 16:07:02;;;;;;;4.07;3.13;;;;;;;15.24;36.24;99248.16;10493109;28;20210;-75
2021/04/04 16:12:21;;;;;;;10.37;4.13;;;;;;;15.53;35.40;99228.97;10497161;28;20219;-73
2021/04/04 16:17:40;;;;;;;7.67;3.00;;;;;;;15.01;36.54;99216.91;10495892;28;20171;-74
2021/04/04 16:23:04;;;;;;;4.97;3.27;;;;;;;14.83;37.15;99207.38;10496651;28;20178;-74
2021/04/04 16:28:24;;;;;;;2.90;2.53;;;;;;;14.91;37.13;99217.91;10494790;28;20289;-75
2021/04/04 16:33:42;;;;;;;3.30;1.70;;;;;;;14.76;37.90;99210.28;10495961;28;20613;-74
2021/04/04 16:39:03;;;;;;;3.93;1.80;;;;;;;14.38;38.77;99195.13;10494118;28;20182;-74
2021/04/04 16:44:23;;;;;;;11.00;2.40;;;;;;;13.85;39.48;99189.66;10491984;28;20210;-73
2021/04/04 16:49:42;;;;;;;6.40;3.97;;;;;;;13.40;40.69;99201.38;10495381;28;20186;-74
2021/04/04 16:55:03;;;;;;;6.13;2.33;;;;;;;12.84;41.62;99206.78;10496433;28;20175;-74
2021/04/04 17:00:24;;;;;;;13.90;3.00;;;;;;;12.48;44.01;99205.56;10494818;28;20552;-74
2021/04/04 17:05:44;;;;;;;7.33;4.23;;;;;;;12.47;44.38;99209.50;10495814;28;20203;-75
2021/04/04 17:11:03;;;;;;;5.13;3.03;;;;;;;12.10;44.34;99206.69;10497939;28;20179;-75
2021/04/04 17:16:22;;;;;;;7.97;3.30;;;;;;;11.85;45.23;99207.28;10502329;28;20167;-74
2021/04/04 17:21:41;;;;;;;4.80;2.87;;;;;;;11.45;47.42;99202.38;10503444;28;20178;-75
2021/04/04 17:27:01;;;;;;;6.50;3.40;;;;;;;11.29;47.85;99205.59;10501764;28;20226;-74
2021/04/04 17:32:20;;;;;;;3.10;2.90;;;;;;;11.30;48.21;99200.88;10502143;28;20261;-75
2021/04/04 17:37:39;;;;;;;6.67;3.40;;;;;;;11.10;49.28;99197.78;10502708;28;20175;-74
2021/04/04 17:42:58;;;;;;;2.30;2.20;;;;;;;11.22;48.80;99193.84;10502838;28;20548;-75
2021/04/04 17:48:17;;;;;;;1.63;1.53;;;;;;;10.92;49.58;99182.53;10501604;28;20218;-76
2021/04/04 17:53:36;;;;;;;6.53;3.00;;;;;;;10.77;50.50;99189.28;10502565;28;20186;-75
2021/04/04 17:58:55;;;;;;;4.17;3.20;;;;;;;10.62;51.02;99198.75;10501043;28;20170;-78
2021/04/04 18:04:17;;;;;;;6.63;2.83;;;;;;;10.18;52.65;99189.38;10500578;28;20206;-75
2021/04/04 18:15:05;;;;;;;7.00;3.47;;;;;;;10.14;53.21;99187.81;10499639;28;20183;-76
2021/04/04 18:20:25;;;;;;;7.00;4.30;;;;;;;9.97;53.98;99178.38;10501348;28;20583;-76
2021/04/04 18:25:45;;;;;;;3.17;2.43;;;;;;;9.93;54.11;99176.81;10499366;28;20234;-76
2021/04/04 18:31:05;;;;;;;7.60;2.60;;;;;;;9.65;54.84;99176.78;10499658;28;20231;-76
2021/04/04 18:36:24;;;;;;;11.20;3.10;;;;;;;9.59;54.93;99179.13;10500590;28;20183;-76
2021/04/04 18:41:44;;;;;;;5.80;2.57;;;;;;;9.50;55.12;99175.19;10500518;28;20625;-76
2021/04/04 18:47:03;;;;;;;5.17;3.17;;;;;;;9.33;55.57;99175.94;10498210;28;20569;-75
2021/04/04 18:52:22;;;;;;;6.97;3.00;;;;;;;9.19;56.08;99175.91;10499922;28;20652;-76
2021/04/04 18:57:42;;;;;;;3.40;2.83;;;;;;;9.10;57.12;99175.47;10499737;28;20202;-77
2021/04/04 19:03:02;;;;;;;6.67;2.93;;;;;;;8.90;57.52;99178.94;10511738;28;20170;-75
2021/04/04 19:08:21;;;;;;;18.93;5.50;;;;;;;8.62;58.40;99167.81;10499534;28;20186;-75
2021/04/04 19:13:41;;;;;;;10.13;4.77;;;;;;;8.32;58.40;99163.75;10493696;28;20195;-75
2021/04/04 19:19:00;;;;;;;5.83;3.53;;;;;;;8.23;58.31;99144.09;10498516;28;20543;-75
2021/04/04 19:24:20;;;;;;;4.80;2.50;;;;;;;8.22;59.81;99145.28;10498667;28;20359;-74
2021/04/04 19:29:40;;;;;;;1.97;1.67;;;;;;;7.94;61.08;99145.03;10496153;28;20179;-74
2021/04/04 19:34:59;;;;;;;3.93;3.60;;;;;;;7.80;62.10;99146.88;10497031;28;20676;-74
2021/04/04 19:40:18;;;;;;;31.80;3.10;;;;;;;7.53;63.09;99138.03;10498592;28;20253;-75
2021/04/04 19:45:38;;;;;;;6.33;2.97;;;;;;;7.36;64.03;99127.72;10496399;28;20210;-75
2021/04/04 19:50:57;;;;;;;10.73;2.10;;;;;;;7.14;64.97;99134.16;10497336;28;20707;-75
2021/04/04 19:56:16;;;;;;;17.40;6.20;;;;;;;6.87;65.81;99123.69;10494728;28;20578;-75
2021/04/04 20:01:35;;;;;;;7.10;2.97;;;;;;;6.95;66.54;99116.34;10493043;28;20178;-74
2021/04/04 20:06:54;;;;;;;7.40;3.87;;;;;;;6.87;66.89;99106.50;10493665;28;20202;-74
2021/04/04 20:12:13;;;;;;;6.00;2.67;;;;;;;6.68;67.21;99118.38;10493618;28;20665;-74
2021/04/04 20:17:32;;;;;;;3.67;2.73;;;;;;;6.54;67.94;99104.56;10492022;28;20206;-74
2021/04/04 20:22:53;;;;;;;3.23;1.80;;;;;;;6.35;69.78;99095.72;10492906;28;20672;-74
2021/04/04 20:28:12;;;;;;;4.07;2.50;;;;;;;6.02;71.49;99086.66;10493262;28;20277;-74
2021/04/04 20:33:31;;;;;;;5.83;3.10;;;;;;;5.78;73.03;99070.72;10491916;28;20178;-74
2021/04/04 20:38:50;;;;;;;6.57;3.63;;;;;;;5.55;74.63;99048.13;10492859;28;20183;-74
2021/04/04 20:44:09;;;;;;;3.77;2.60;;;;;;;5.38;75.98;99048.66;10492021;28;20214;-75
2021/04/04 20:49:28;;;;;;;3.83;1.93;;;;;;;5.33;76.41;99062.59;10500847;28;20186;-74
2021/04/04 20:54:48;;;;;;;7.43;2.37;;;;;;;5.22;76.93;99060.84;10500329;28;20254;-75
2021/04/04 21:00:10;;;;;;;3.83;2.43;;;;;;;5.18;77.04;99062.72;10498622;28;20179;-74
2021/04/04 21:05:30;;;;;;;3.97;2.43;;;;;;;5.04;77.96;99070.66;10499772;28;20673;-74
2021/04/04 21:10:50;;;;;;;7.70;2.97;;;;;;;4.97;78.59;99065.09;10498826;28;20257;-74
2021/04/04 21:16:11;;;;;;;10.40;3.33;;;;;;;4.98;77.74;99044.88;10498449;28;20582;-74
2021/04/04 21:21:30;;;;;;;5.10;2.40;;;;;;;4.86;77.96;99010.41;10499693;28;20667;-74
2021/04/04 21:26:48;;;;;;;4.17;2.60;;;;;;;4.73;79.33;99008.22;10498615;28;20222;-74
2021/04/04 21:32:08;;;;;;;8.50;2.20;;;;;;;4.55;79.53;98992.72;10499076;28;20182;-74
2021/04/04 21:37:27;;;;;;;9.17;3.40;;;;;;;4.43;80.68;98993.66;10503128;28;20174;-74
2021/04/04 21:42:47;;;;;;;1.83;1.70;;;;;;;4.43;79.82;98981.97;10502024;28;20221;-74
2021/04/04 21:48:06;;;;;;;9.93;2.97;;;;;;;4.40;81.03;98986.19;10500580;28;20584;-75
2021/04/04 21:53:25;;;;;;;7.30;2.80;;;;;;;4.32;82.04;98961.94;10502769;28;20175;-74
2021/04/04 21:58:44;;;;;;;3.60;2.47;;;;;;;4.16;81.77;98956.56;10500579;28;20279;-75
2021/04/04 22:04:03;;;;;;;3.57;2.47;;;;;;;4.09;82.41;98961.88;10501984;28;20198;-75
2021/04/04 22:09:23;;;;;;;10.13;4.37;;;;;;;4.13;81.96;98954.56;10501271;28;20196;-75
2021/04/04 22:14:42;;;;;;;2.40;2.13;;;;;;;3.89;82.87;98945.94;10501059;28;20166;-74
2021/04/04 22:20:18;;;;;;;3.00;1.40;;;;;;;3.69;83.30;98933.47;10501928;28;20162;-75
2021/04/04 22:25:37;;;;;;;4.70;1.57;;;;;;;3.84;84.22;98939.97;10500072;28;20321;-74
2021/04/04 22:30:56;;;;;;;6.03;4.27;;;;;;;3.64;85.75;98933.75;10500347;28;20254;-75
2021/04/04 22:36:15;;;;;;;4.53;2.70;;;;;;;3.63;87.16;98932.19;10501272;28;20625;-74
2021/04/04 22:41:34;;;;;;;5.17;2.37;;;;;;;3.61;87.04;98937.19;10500174;28;20171;-74
2021/04/04 22:46:53;;;;;;;2.30;2.10;;;;;;;3.47;88.38;98914.38;10498976;28;20218;-74
2021/04/04 22:52:13;;;;;;;4.23;3.83;;;;;;;3.36;89.30;98914.13;10500616;28;20265;-74
2021/04/04 22:57:32;;;;;;;2.47;2.10;;;;;;;3.30;89.68;98903.91;10499141;28;20175;-74
2021/04/04 23:02:51;;;;;;;1.40;1.30;;;;;;;3.12;91.41;98882.88;10498877;28;20170;-74
2021/04/04 23:08:10;;;;;;;2.80;1.70;;;;;;;3.24;90.13;98883.56;10498245;28;20218;-74
2021/04/04 23:13:31;;;;;;;3.57;2.30;;;;;;;3.19;91.58;98876.47;10498302;28;20171;-74
2021/04/04 23:18:51;;;;;;;2.60;2.50;;;;;;;3.08;93.59;98863.78;10499604;28;20174;-75
2021/04/04 23:24:11;;;;;;;1.57;1.47;;;;;;;2.91;94.80;98850.59;10498966;28;20312;-74
2021/04/04 23:29:30;;;;;;;10.33;3.43;;;;;;;2.80;96.44;98852.31;10496988;28;20190;-73
2021/04/04 23:34:49;;;;;;;1.67;1.57;;;;;;;2.77;96.54;98844.84;10498896;28;20269;-73
2021/04/04 23:40:09;;;;;;;3.57;2.63;;;;;;;2.79;96.43;98837.16;10497775;28;20174;-74
2021/04/04 23:45:28;;;;;;;5.33;2.93;;;;;;;2.70;96.98;98842.00;10496837;28;20210;-73
2021/04/04 23:50:47;;;;;;;1.60;1.33;;;;;;;2.58;97.64;98835.88;10498485;28;20167;-73
2021/04/04 23:56:08;;;;;;;29.07;2.20;;;;;;;2.46;98.70;98834.06;10498077;28;20261;-73
